sensor_id;sensor_type;location;lat;lon;timestamp;pressure;altitude;pressure_sealevel;temperature;humidity
51195;BME280;37259;49.972;19.850;2022-07-23T00:00:20;98580;;;20;100
51195;BME280;37259;49.972;19.850;2022-07-23T00:01:20;98580;;;20;100
51195;BME280;37259;49.972;19.850;2022-07-23T00:02:20;98580;;;20;100
51195;BME280;37259;49.972;19.850;2022-07-23T00:03:20;98580;;;20;100
51195;BME280;37259;49.972;19.850;2022-07-23T00:04:20;98580;;;19.9;100
51195;BME280;37259;49.972;19.850;2022-07-23T00:05:20;98580;;;19.9;100
51195;BME280;37259;49.972;19.850;2022-07-23T00:06:20;98580;;;19.9;100
51195;BME280;37259;49.972;19.850;2022-07-23T00:07:20;98580;;;19.9;100
51195;BME280;37259;49.972;19.850;2022-07-23T00:08:20;98580;;;19.9;100
51195;BME280;37259;49.972;19.850;2022-07-23T00:09:20;98580;;;19.8;100
51195;BME280;37259;49.972;19.850;2022-07-23T00:10:20;98580;;;19.8;100
51195;BME280;37259;49.972;19.850;2022-07-23T00:11:20;98580;;;19.8;100
51195;BME280;37259;49.972;19.850;2022-07-23T00:12:20;98580;;;19.8;100
51195;BME280;37259;49.972;19.850;2022-07-23T00:13:20;98580;;;19.8;100
51195;BME280;37259;49.972;19.850;2022-07-23T00:14:20;98580;;;19.8;100
51195;BME280;37259;49.972;19.850;2022-07-23T00:15:20;98570;;;19.8;100
51195;BME280;37259;49.972;19.850;2022-07-23T00:16:20;98570;;;19.8;100
51195;BME280;37259;49.972;19.850;2022-07-23T00:17:20;98570;;;19.7;100
51195;BME280;37259;49.972;19.850;2022-07-23T00:18:20;98570;;;19.7;100
51195;BME280;37259;49.972;19.850;2022-07-23T00:19:20;98570;;;19.7;100
51195;BME280;37259;49.972;19.850;2022-07-23T00:20:20;98570;;;19.7;100
51195;BME280;37259;49.972;19.850;2022-07-23T00:21:20;98580;;;19.7;100
51195;BME280;37259;49.972;19.850;2022-07-23T00:22:20;98580;;;19.7;100
51195;BME280;37259;49.972;19.850;2022-07-23T00:23:20;98580;;;19.6;100
51195;BME280;37259;49.972;19.850;2022-07-23T00:24:20;98580;;;19.6;100
51195;BME280;37259;49.972;19.850;2022-07-23T00:25:20;98580;;;19.6;100
51195;BME280;37259;49.972;19.850;2022-07-23T00:26:20;98580;;;19.6;100
51195;BME280;37259;49.972;19.850;2022-07-23T00:27:20;98580;;;19.6;100
51195;BME280;37259;49.972;19.850;2022-07-23T00:28:20;98580;;;19.6;100
51195;BME280;37259;49.972;19.850;2022-07-23T00:29:20;98580;;;19.6;100
51195;BME280;37259;49.972;19.850;2022-07-23T00:30:20;98580;;;19.6;100
51195;BME280;37259;49.972;19.850;2022-07-23T00:31:20;98580;;;19.6;100
51195;BME280;37259;49.972;19.850;2022-07-23T00:32:20;98580;;;19.5;100
51195;BME280;37259;49.972;19.850;2022-07-23T00:33:20;98580;;;19.5;100
51195;BME280;37259;49.972;19.850;2022-07-23T00:34:20;98580;;;19.4;100
51195;BME280;37259;49.972;19.850;2022-07-23T00:35:20;98580;;;19.4;100
51195;BME280;37259;49.972;19.850;2022-07-23T00:36:20;98580;;;19.4;100
51195;BME280;37259;49.972;19.850;2022-07-23T00:37:20;98580;;;19.4;100
51195;BME280;37259;49.972;19.850;2022-07-23T00:38:20;98590;;;19.4;100
51195;BME280;37259;49.972;19.850;2022-07-23T00:39:20;98580;;;19.3;100
51195;BME280;37259;49.972;19.850;2022-07-23T00:40:20;98580;;;19.3;100
51195;BME280;37259;49.972;19.850;2022-07-23T00:41:20;98580;;;19.3;100
51195;BME280;37259;49.972;19.850;2022-07-23T00:42:20;98580;;;19.4;100
51195;BME280;37259;49.972;19.850;2022-07-23T00:43:20;98580;;;19.4;100
51195;BME280;37259;49.972;19.850;2022-07-23T00:44:21;98580;;;19.4;100
51195;BME280;37259;49.972;19.850;2022-07-23T00:45:20;98580;;;19.4;100
51195;BME280;37259;49.972;19.850;2022-07-23T00:46:20;98580;;;19.4;100
51195;BME280;37259;49.972;19.850;2022-07-23T00:47:20;98580;;;19.4;100
51195;BME280;37259;49.972;19.850;2022-07-23T00:48:20;98580;;;19.4;100
51195;BME280;37259;49.972;19.850;2022-07-23T00:49:20;98580;;;19.4;100
51195;BME280;37259;49.972;19.850;2022-07-23T00:50:20;98590;;;19.4;100
51195;BME280;37259;49.972;19.850;2022-07-23T00:51:20;98590;;;19.5;100
51195;BME280;37259;49.972;19.850;2022-07-23T00:52:20;98590;;;19.5;100
51195;BME280;37259;49.972;19.850;2022-07-23T00:53:20;98590;;;19.4;100
51195;BME280;37259;49.972;19.850;2022-07-23T00:54:21;98590;;;19.4;100
51195;BME280;37259;49.972;19.850;2022-07-23T00:55:20;98590;;;19.4;100
51195;BME280;37259;49.972;19.850;2022-07-23T00:56:20;98590;;;19.4;100
51195;BME280;37259;49.972;19.850;2022-07-23T00:57:20;98590;;;19.4;100
51195;BME280;37259;49.972;19.850;2022-07-23T00:58:20;98580;;;19.4;100
51195;BME280;37259;49.972;19.850;2022-07-23T00:59:20;98580;;;19.4;100
51195;BME280;37259;49.972;19.850;2022-07-23T01:00:20;98580;;;19.4;100
51195;BME280;37259;49.972;19.850;2022-07-23T01:01:20;98580;;;19.4;100
51195;BME280;37259;49.972;19.850;2022-07-23T01:02:20;98580;;;19.4;100
51195;BME280;37259;49.972;19.850;2022-07-23T01:03:20;98580;;;19.4;100
51195;BME280;37259;49.972;19.850;2022-07-23T01:04:20;98580;;;19.4;100
51195;BME280;37259;49.972;19.850;2022-07-23T01:05:20;98590;;;19.4;100
51195;BME280;37259;49.972;19.850;2022-07-23T01:06:20;98590;;;19.4;100
51195;BME280;37259;49.972;19.850;2022-07-23T01:07:20;98590;;;19.4;100
51195;BME280;37259;49.972;19.850;2022-07-23T01:08:20;98590;;;19.4;100
51195;BME280;37259;49.972;19.850;2022-07-23T01:09:20;98590;;;19.4;100
51195;BME280;37259;49.972;19.850;2022-07-23T01:10:20;98590;;;19.3;100
51195;BME280;37259;49.972;19.850;2022-07-23T01:11:20;98590;;;19.3;100
51195;BME280;37259;49.972;19.850;2022-07-23T01:12:20;98590;;;19.3;100
51195;BME280;37259;49.972;19.850;2022-07-23T01:13:20;98580;;;19.3;100
51195;BME280;37259;49.972;19.850;2022-07-23T01:14:20;98590;;;19.2;100
51195;BME280;37259;49.972;19.850;2022-07-23T01:15:20;98590;;;19.2;100
51195;BME280;37259;49.972;19.850;2022-07-23T01:16:20;98590;;;19.2;100
51195;BME280;37259;49.972;19.850;2022-07-23T01:17:20;98590;;;19.1;100
51195;BME280;37259;49.972;19.850;2022-07-23T01:18:20;98590;;;19.1;100
51195;BME280;37259;49.972;19.850;2022-07-23T01:19:20;98590;;;19.2;100
51195;BME280;37259;49.972;19.850;2022-07-23T01:20:20;98590;;;19.2;100
51195;BME280;37259;49.972;19.850;2022-07-23T01:21:20;98590;;;19.2;100
51195;BME280;37259;49.972;19.850;2022-07-23T01:22:20;98590;;;19.2;100
51195;BME280;37259;49.972;19.850;2022-07-23T01:23:20;98580;;;19.2;100
51195;BME280;37259;49.972;19.850;2022-07-23T01:24:20;98580;;;19.2;100
51195;BME280;37259;49.972;19.850;2022-07-23T01:25:20;98580;;;19.1;100
51195;BME280;37259;49.972;19.850;2022-07-23T01:26:20;98580;;;19.1;100
51195;BME280;37259;49.972;19.850;2022-07-23T01:27:20;98580;;;19.1;100
51195;BME280;37259;49.972;19.850;2022-07-23T01:28:20;98590;;;19;100
51195;BME280;37259;49.972;19.850;2022-07-23T01:29:20;98590;;;19;100
51195;BME280;37259;49.972;19.850;2022-07-23T01:30:20;98580;;;19;100
51195;BME280;37259;49.972;19.850;2022-07-23T01:31:20;98580;;;19;100
51195;BME280;37259;49.972;19.850;2022-07-23T01:32:20;98580;;;19;100
51195;BME280;37259;49.972;19.850;2022-07-23T01:33:20;98580;;;19;100
51195;BME280;37259;49.972;19.850;2022-07-23T01:34:20;98580;;;19;100
51195;BME280;37259;49.972;19.850;2022-07-23T01:35:20;98580;;;19;100
51195;BME280;37259;49.972;19.850;2022-07-23T01:36:20;98580;;;19;100
51195;BME280;37259;49.972;19.850;2022-07-23T01:37:20;98590;;;19;100
51195;BME280;37259;49.972;19.850;2022-07-23T01:38:20;98590;;;18.9;100
51195;BME280;37259;49.972;19.850;2022-07-23T01:39:20;98590;;;18.9;100
51195;BME280;37259;49.972;19.850;2022-07-23T01:40:20;98590;;;18.9;100
51195;BME280;37259;49.972;19.850;2022-07-23T01:41:20;98590;;;18.9;100
51195;BME280;37259;49.972;19.850;2022-07-23T01:42:20;98580;;;18.9;100
51195;BME280;37259;49.972;19.850;2022-07-23T01:43:20;98590;;;18.8;100
51195;BME280;37259;49.972;19.850;2022-07-23T01:44:20;98590;;;18.8;100
51195;BME280;37259;49.972;19.850;2022-07-23T01:45:20;98590;;;18.8;100
51195;BME280;37259;49.972;19.850;2022-07-23T01:46:20;98590;;;18.8;100
51195;BME280;37259;49.972;19.850;2022-07-23T01:47:20;98590;;;18.8;100
51195;BME280;37259;49.972;19.850;2022-07-23T01:48:20;98590;;;18.8;100
51195;BME280;37259;49.972;19.850;2022-07-23T01:49:20;98590;;;18.8;100
51195;BME280;37259;49.972;19.850;2022-07-23T01:50:20;98590;;;18.8;100
51195;BME280;37259;49.972;19.850;2022-07-23T01:51:20;98590;;;18.7;100
51195;BME280;37259;49.972;19.850;2022-07-23T01:52:20;98580;;;18.7;100
51195;BME280;37259;49.972;19.850;2022-07-23T01:53:20;98580;;;18.7;100
51195;BME280;37259;49.972;19.850;2022-07-23T01:54:20;98590;;;18.7;100
51195;BME280;37259;49.972;19.850;2022-07-23T01:55:20;98590;;;18.7;100
51195;BME280;37259;49.972;19.850;2022-07-23T01:56:20;98590;;;18.7;100
51195;BME280;37259;49.972;19.850;2022-07-23T01:57:20;98580;;;18.6;100
51195;BME280;37259;49.972;19.850;2022-07-23T01:58:20;98580;;;18.6;100
51195;BME280;37259;49.972;19.850;2022-07-23T01:59:20;98590;;;18.6;100
51195;BME280;37259;49.972;19.850;2022-07-23T02:00:20;98590;;;18.6;100
51195;BME280;37259;49.972;19.850;2022-07-23T02:01:20;98580;;;18.6;100
51195;BME280;37259;49.972;19.850;2022-07-23T02:02:20;98580;;;18.6;100
51195;BME280;37259;49.972;19.850;2022-07-23T02:03:20;98580;;;18.6;100
51195;BME280;37259;49.972;19.850;2022-07-23T02:04:20;98580;;;18.6;100
51195;BME280;37259;49.972;19.850;2022-07-23T02:05:20;98580;;;18.6;100
51195;BME280;37259;49.972;19.850;2022-07-23T02:06:20;98580;;;18.6;100
51195;BME280;37259;49.972;19.850;2022-07-23T02:07:20;98580;;;18.5;100
51195;BME280;37259;49.972;19.850;2022-07-23T02:08:20;98580;;;18.5;100
51195;BME280;37259;49.972;19.850;2022-07-23T02:09:20;98580;;;18.5;100
51195;BME280;37259;49.972;19.850;2022-07-23T02:10:20;98580;;;18.5;100
51195;BME280;37259;49.972;19.850;2022-07-23T02:11:20;98580;;;18.5;100
51195;BME280;37259;49.972;19.850;2022-07-23T02:12:20;98580;;;18.5;100
51195;BME280;37259;49.972;19.850;2022-07-23T02:13:20;98580;;;18.4;100
51195;BME280;37259;49.972;19.850;2022-07-23T02:14:20;98580;;;18.4;100
51195;BME280;37259;49.972;19.850;2022-07-23T02:15:20;98580;;;18.4;100
51195;BME280;37259;49.972;19.850;2022-07-23T02:16:20;98580;;;18.4;100
51195;BME280;37259;49.972;19.850;2022-07-23T02:17:20;98580;;;18.4;100
51195;BME280;37259;49.972;19.850;2022-07-23T02:18:20;98580;;;18.4;100
51195;BME280;37259;49.972;19.850;2022-07-23T02:19:20;98580;;;18.4;100
51195;BME280;37259;49.972;19.850;2022-07-23T02:20:20;98590;;;18.4;100
51195;BME280;37259;49.972;19.850;2022-07-23T02:21:20;98590;;;18.4;100
51195;BME280;37259;49.972;19.850;2022-07-23T02:22:20;98580;;;18.3;100
51195;BME280;37259;49.972;19.850;2022-07-23T02:23:20;98580;;;18.3;100
51195;BME280;37259;49.972;19.850;2022-07-23T02:24:20;98590;;;18.3;100
51195;BME280;37259;49.972;19.850;2022-07-23T02:25:20;98590;;;18.3;100
51195;BME280;37259;49.972;19.850;2022-07-23T02:26:20;98580;;;18.3;100
51195;BME280;37259;49.972;19.850;2022-07-23T02:27:20;98590;;;18.3;100
51195;BME280;37259;49.972;19.850;2022-07-23T02:28:20;98590;;;18.3;100
51195;BME280;37259;49.972;19.850;2022-07-23T02:29:20;98580;;;18.2;100
51195;BME280;37259;49.972;19.850;2022-07-23T02:30:20;98580;;;18.2;100
51195;BME280;37259;49.972;19.850;2022-07-23T02:31:20;98580;;;18.2;100
51195;BME280;37259;49.972;19.850;2022-07-23T02:32:20;98580;;;18.2;100
51195;BME280;37259;49.972;19.850;2022-07-23T02:33:20;98580;;;18.2;100
51195;BME280;37259;49.972;19.850;2022-07-23T02:34:20;98580;;;18.2;100
51195;BME280;37259;49.972;19.850;2022-07-23T02:35:20;98580;;;18.2;100
51195;BME280;37259;49.972;19.850;2022-07-23T02:36:20;98580;;;18.2;100
51195;BME280;37259;49.972;19.850;2022-07-23T02:37:20;98570;;;18.2;100
51195;BME280;37259;49.972;19.850;2022-07-23T02:38:20;98570;;;18.2;100
51195;BME280;37259;49.972;19.850;2022-07-23T02:39:20;98570;;;18.1;100
51195;BME280;37259;49.972;19.850;2022-07-23T02:40:20;98580;;;18.1;100
51195;BME280;37259;49.972;19.850;2022-07-23T02:41:20;98580;;;18.1;100
51195;BME280;37259;49.972;19.850;2022-07-23T02:42:20;98580;;;18.2;100
51195;BME280;37259;49.972;19.850;2022-07-23T02:43:20;98580;;;18.2;100
51195;BME280;37259;49.972;19.850;2022-07-23T02:44:20;98580;;;18.2;100
51195;BME280;37259;49.972;19.850;2022-07-23T02:45:20;98580;;;18.2;100
51195;BME280;37259;49.972;19.850;2022-07-23T02:46:20;98580;;;18.2;100
51195;BME280;37259;49.972;19.850;2022-07-23T02:47:20;98580;;;18.1;100
51195;BME280;37259;49.972;19.850;2022-07-23T02:48:20;98590;;;18.1;100
51195;BME280;37259;49.972;19.850;2022-07-23T02:49:20;98590;;;18.1;100
51195;BME280;37259;49.972;19.850;2022-07-23T02:50:20;98590;;;18.1;100
51195;BME280;37259;49.972;19.850;2022-07-23T02:51:20;98590;;;18;100
51195;BME280;37259;49.972;19.850;2022-07-23T02:52:20;98590;;;18;100
51195;BME280;37259;49.972;19.850;2022-07-23T02:53:20;98590;;;18;100
51195;BME280;37259;49.972;19.850;2022-07-23T02:54:20;98580;;;18;100
51195;BME280;37259;49.972;19.850;2022-07-23T02:55:20;98590;;;17.9;100
51195;BME280;37259;49.972;19.850;2022-07-23T02:56:20;98590;;;17.9;100
51195;BME280;37259;49.972;19.850;2022-07-23T02:57:20;98590;;;17.9;100
51195;BME280;37259;49.972;19.850;2022-07-23T02:58:20;98590;;;18;100
51195;BME280;37259;49.972;19.850;2022-07-23T02:59:20;98590;;;18;100
51195;BME280;37259;49.972;19.850;2022-07-23T03:00:20;98590;;;18;100
51195;BME280;37259;49.972;19.850;2022-07-23T03:01:20;98590;;;18;100
51195;BME280;37259;49.972;19.850;2022-07-23T03:02:20;98580;;;18;100
51195;BME280;37259;49.972;19.850;2022-07-23T03:03:20;98590;;;18;100
51195;BME280;37259;49.972;19.850;2022-07-23T03:04:20;98590;;;17.9;100
51195;BME280;37259;49.972;19.850;2022-07-23T03:05:20;98590;;;17.9;100
51195;BME280;37259;49.972;19.850;2022-07-23T03:06:20;98590;;;17.9;100
51195;BME280;37259;49.972;19.850;2022-07-23T03:07:20;98580;;;17.8;100
51195;BME280;37259;49.972;19.850;2022-07-23T03:08:20;98580;;;17.9;100
51195;BME280;37259;49.972;19.850;2022-07-23T03:09:20;98590;;;17.9;100
51195;BME280;37259;49.972;19.850;2022-07-23T03:10:20;98590;;;17.9;100
51195;BME280;37259;49.972;19.850;2022-07-23T03:11:20;98590;;;17.9;100
51195;BME280;37259;49.972;19.850;2022-07-23T03:12:20;98590;;;17.8;100
51195;BME280;37259;49.972;19.850;2022-07-23T03:13:20;98590;;;17.8;100
51195;BME280;37259;49.972;19.850;2022-07-23T03:14:20;98580;;;17.8;100
51195;BME280;37259;49.972;19.850;2022-07-23T03:15:20;98580;;;17.8;100
51195;BME280;37259;49.972;19.850;2022-07-23T03:16:20;98580;;;17.8;100
51195;BME280;37259;49.972;19.850;2022-07-23T03:17:20;98580;;;17.8;100
51195;BME280;37259;49.972;19.850;2022-07-23T03:18:20;98580;;;17.8;100
51195;BME280;37259;49.972;19.850;2022-07-23T03:19:20;98580;;;17.9;100
51195;BME280;37259;49.972;19.850;2022-07-23T03:20:20;98580;;;17.9;100
51195;BME280;37259;49.972;19.850;2022-07-23T03:21:20;98580;;;17.9;100
51195;BME280;37259;49.972;19.850;2022-07-23T03:22:20;98580;;;18;100
51195;BME280;37259;49.972;19.850;2022-07-23T03:23:20;98580;;;18;100
51195;BME280;37259;49.972;19.850;2022-07-23T03:24:20;98580;;;18;100
51195;BME280;37259;49.972;19.850;2022-07-23T03:25:20;98580;;;18;100
51195;BME280;37259;49.972;19.850;2022-07-23T03:26:20;98570;;;18;100
51195;BME280;37259;49.972;19.850;2022-07-23T03:27:20;98570;;;18;100
51195;BME280;37259;49.972;19.850;2022-07-23T03:28:20;98560;;;18;100
51195;BME280;37259;49.972;19.850;2022-07-23T03:29:20;98560;;;18;100
51195;BME280;37259;49.972;19.850;2022-07-23T03:30:20;98570;;;18;100
51195;BME280;37259;49.972;19.850;2022-07-23T03:31:20;98570;;;18;100
51195;BME280;37259;49.972;19.850;2022-07-23T03:32:20;98570;;;18.1;100
51195;BME280;37259;49.972;19.850;2022-07-23T03:33:20;98570;;;18.1;100
51195;BME280;37259;49.972;19.850;2022-07-23T03:34:20;98570;;;18.1;100
51195;BME280;37259;49.972;19.850;2022-07-23T03:35:20;98570;;;18.1;100
51195;BME280;37259;49.972;19.850;2022-07-23T03:36:20;98570;;;18.1;100
51195;BME280;37259;49.972;19.850;2022-07-23T03:37:20;98570;;;18.2;100
51195;BME280;37259;49.972;19.850;2022-07-23T03:38:20;98570;;;18.2;100
51195;BME280;37259;49.972;19.850;2022-07-23T03:39:20;98570;;;18.2;100
51195;BME280;37259;49.972;19.850;2022-07-23T03:40:20;98570;;;18.2;100
51195;BME280;37259;49.972;19.850;2022-07-23T03:41:20;98570;;;18.2;100
51195;BME280;37259;49.972;19.850;2022-07-23T03:42:20;98570;;;18.2;100
51195;BME280;37259;49.972;19.850;2022-07-23T03:43:20;98570;;;18.2;100
51195;BME280;37259;49.972;19.850;2022-07-23T03:44:20;98570;;;18.2;100
51195;BME280;37259;49.972;19.850;2022-07-23T03:45:20;98570;;;18.2;100
51195;BME280;37259;49.972;19.850;2022-07-23T03:46:20;98570;;;18.2;100
51195;BME280;37259;49.972;19.850;2022-07-23T03:47:20;98570;;;18.3;100
51195;BME280;37259;49.972;19.850;2022-07-23T03:48:20;98570;;;18.3;100
51195;BME280;37259;49.972;19.850;2022-07-23T03:49:20;98570;;;18.3;100
51195;BME280;37259;49.972;19.850;2022-07-23T03:50:20;98570;;;18.3;100
51195;BME280;37259;49.972;19.850;2022-07-23T03:51:20;98570;;;18.3;100
51195;BME280;37259;49.972;19.850;2022-07-23T03:52:20;98570;;;18.3;100
51195;BME280;37259;49.972;19.850;2022-07-23T03:53:20;98570;;;18.4;100
51195;BME280;37259;49.972;19.850;2022-07-23T03:54:20;98570;;;18.5;100
51195;BME280;37259;49.972;19.850;2022-07-23T03:55:20;98570;;;18.5;100
51195;BME280;37259;49.972;19.850;2022-07-23T03:56:20;98570;;;18.5;100
51195;BME280;37259;49.972;19.850;2022-07-23T03:57:20;98570;;;18.6;100
51195;BME280;37259;49.972;19.850;2022-07-23T03:58:20;98580;;;18.6;100
51195;BME280;37259;49.972;19.850;2022-07-23T03:59:20;98580;;;18.6;100
51195;BME280;37259;49.972;19.850;2022-07-23T04:00:20;98580;;;18.7;100
51195;BME280;37259;49.972;19.850;2022-07-23T04:01:20;98580;;;18.7;100
51195;BME280;37259;49.972;19.850;2022-07-23T04:02:20;98580;;;18.7;100
51195;BME280;37259;49.972;19.850;2022-07-23T04:03:20;98570;;;18.8;100
51195;BME280;37259;49.972;19.850;2022-07-23T04:04:20;98570;;;18.8;100
51195;BME280;37259;49.972;19.850;2022-07-23T04:05:20;98570;;;18.8;100
51195;BME280;37259;49.972;19.850;2022-07-23T04:06:20;98570;;;18.8;100
51195;BME280;37259;49.972;19.850;2022-07-23T04:07:20;98570;;;18.8;100
51195;BME280;37259;49.972;19.850;2022-07-23T04:08:20;98570;;;18.8;100
51195;BME280;37259;49.972;19.850;2022-07-23T04:09:20;98580;;;18.8;100
51195;BME280;37259;49.972;19.850;2022-07-23T04:10:20;98570;;;18.9;100
51195;BME280;37259;49.972;19.850;2022-07-23T04:11:20;98580;;;18.9;100
51195;BME280;37259;49.972;19.850;2022-07-23T04:12:20;98580;;;18.9;100
51195;BME280;37259;49.972;19.850;2022-07-23T04:13:20;98570;;;19;100
51195;BME280;37259;49.972;19.850;2022-07-23T04:14:20;98570;;;19;100
51195;BME280;37259;49.972;19.850;2022-07-23T04:15:20;98580;;;19;100
51195;BME280;37259;49.972;19.850;2022-07-23T04:16:20;98580;;;19;100
51195;BME280;37259;49.972;19.850;2022-07-23T04:17:20;98580;;;19.1;100
51195;BME280;37259;49.972;19.850;2022-07-23T04:18:20;98570;;;19.1;100
51195;BME280;37259;49.972;19.850;2022-07-23T04:19:20;98570;;;19.1;100
51195;BME280;37259;49.972;19.850;2022-07-23T04:20:20;98570;;;19.2;100
51195;BME280;37259;49.972;19.850;2022-07-23T04:21:20;98580;;;19.2;100
51195;BME280;37259;49.972;19.850;2022-07-23T04:22:20;98580;;;19.2;100
51195;BME280;37259;49.972;19.850;2022-07-23T04:23:20;98570;;;19.3;100
51195;BME280;37259;49.972;19.850;2022-07-23T04:24:20;98580;;;19.4;100
51195;BME280;37259;49.972;19.850;2022-07-23T04:25:20;98580;;;19.4;100
51195;BME280;37259;49.972;19.850;2022-07-23T04:26:20;98580;;;19.4;100
51195;BME280;37259;49.972;19.850;2022-07-23T04:27:20;98580;;;19.4;100
51195;BME280;37259;49.972;19.850;2022-07-23T04:28:20;98580;;;19.5;100
51195;BME280;37259;49.972;19.850;2022-07-23T04:29:20;98580;;;19.5;100
51195;BME280;37259;49.972;19.850;2022-07-23T04:30:20;98580;;;19.5;100
51195;BME280;37259;49.972;19.850;2022-07-23T04:31:20;98570;;;19.5;100
51195;BME280;37259;49.972;19.850;2022-07-23T04:32:20;98570;;;19.5;100
51195;BME280;37259;49.972;19.850;2022-07-23T04:33:20;98570;;;19.6;100
51195;BME280;37259;49.972;19.850;2022-07-23T04:34:20;98570;;;19.6;100
51195;BME280;37259;49.972;19.850;2022-07-23T04:35:20;98570;;;19.6;100
51195;BME280;37259;49.972;19.850;2022-07-23T04:36:20;98580;;;19.8;100
51195;BME280;37259;49.972;19.850;2022-07-23T04:37:20;98570;;;19.8;100
51195;BME280;37259;49.972;19.850;2022-07-23T04:38:20;98570;;;19.8;100
51195;BME280;37259;49.972;19.850;2022-07-23T04:39:20;98580;;;19.9;100
51195;BME280;37259;49.972;19.850;2022-07-23T04:40:20;98580;;;19.9;100
51195;BME280;37259;49.972;19.850;2022-07-23T04:41:20;98580;;;19.9;100
51195;BME280;37259;49.972;19.850;2022-07-23T04:42:20;98580;;;20.1;100
51195;BME280;37259;49.972;19.850;2022-07-23T04:43:20;98570;;;20.1;100
51195;BME280;37259;49.972;19.850;2022-07-23T04:44:20;98570;;;20.1;100
51195;BME280;37259;49.972;19.850;2022-07-23T04:45:20;98570;;;20.2;100
51195;BME280;37259;49.972;19.850;2022-07-23T04:46:20;98570;;;20.3;100
51195;BME280;37259;49.972;19.850;2022-07-23T04:47:20;98570;;;20.3;100
51195;BME280;37259;49.972;19.850;2022-07-23T04:48:20;98560;;;20.4;100
51195;BME280;37259;49.972;19.850;2022-07-23T04:49:20;98560;;;20.4;100
51195;BME280;37259;49.972;19.850;2022-07-23T04:50:20;98570;;;20.5;100
51195;BME280;37259;49.972;19.850;2022-07-23T04:51:20;98570;;;20.5;100
51195;BME280;37259;49.972;19.850;2022-07-23T04:52:20;98570;;;20.7;100
51195;BME280;37259;49.972;19.850;2022-07-23T04:53:20;98580;;;20.8;100
51195;BME280;37259;49.972;19.850;2022-07-23T04:54:20;98580;;;20.8;100
51195;BME280;37259;49.972;19.850;2022-07-23T04:55:20;98580;;;20.9;100
51195;BME280;37259;49.972;19.850;2022-07-23T04:56:20;98580;;;20.9;100
51195;BME280;37259;49.972;19.850;2022-07-23T04:57:20;98570;;;20.9;100
51195;BME280;37259;49.972;19.850;2022-07-23T04:58:20;98570;;;21;100
51195;BME280;37259;49.972;19.850;2022-07-23T04:59:20;98570;;;21;100
51195;BME280;37259;49.972;19.850;2022-07-23T05:00:20;98560;;;21.1;100
51195;BME280;37259;49.972;19.850;2022-07-23T05:01:20;98560;;;21.2;100
51195;BME280;37259;49.972;19.850;2022-07-23T05:02:20;98560;;;21.2;100
51195;BME280;37259;49.972;19.850;2022-07-23T05:03:20;98570;;;21.3;100
51195;BME280;37259;49.972;19.850;2022-07-23T05:04:20;98570;;;21.4;100
51195;BME280;37259;49.972;19.850;2022-07-23T05:05:20;98570;;;21.4;100
51195;BME280;37259;49.972;19.850;2022-07-23T05:06:20;98570;;;21.4;100
51195;BME280;37259;49.972;19.850;2022-07-23T05:07:20;98570;;;21.4;100
51195;BME280;37259;49.972;19.850;2022-07-23T05:08:20;98570;;;21.4;100
51195;BME280;37259;49.972;19.850;2022-07-23T05:09:20;98570;;;21.3;100
51195;BME280;37259;49.972;19.850;2022-07-23T05:10:20;98560;;;21.4;100
51195;BME280;37259;49.972;19.850;2022-07-23T05:11:20;98560;;;21.4;100
51195;BME280;37259;49.972;19.850;2022-07-23T05:12:20;98570;;;21.5;100
51195;BME280;37259;49.972;19.850;2022-07-23T05:13:20;98570;;;21.6;100
51195;BME280;37259;49.972;19.850;2022-07-23T05:14:20;98570;;;21.7;100
51195;BME280;37259;49.972;19.850;2022-07-23T05:15:20;98570;;;21.8;100
51195;BME280;37259;49.972;19.850;2022-07-23T05:16:20;98570;;;21.8;100
51195;BME280;37259;49.972;19.850;2022-07-23T05:17:20;98570;;;21.9;100
51195;BME280;37259;49.972;19.850;2022-07-23T05:18:20;98570;;;21.9;100
51195;BME280;37259;49.972;19.850;2022-07-23T05:19:20;98570;;;22;100
51195;BME280;37259;49.972;19.850;2022-07-23T05:20:20;98570;;;22;100
51195;BME280;37259;49.972;19.850;2022-07-23T05:21:20;98570;;;22.1;100
51195;BME280;37259;49.972;19.850;2022-07-23T05:22:20;98570;;;22.1;100
51195;BME280;37259;49.972;19.850;2022-07-23T05:23:20;98570;;;22.1;100
51195;BME280;37259;49.972;19.850;2022-07-23T05:24:20;98570;;;22.1;100
51195;BME280;37259;49.972;19.850;2022-07-23T05:25:20;98570;;;22.2;100
51195;BME280;37259;49.972;19.850;2022-07-23T05:26:20;98570;;;22.2;100
51195;BME280;37259;49.972;19.850;2022-07-23T05:27:20;98570;;;22.4;100
51195;BME280;37259;49.972;19.850;2022-07-23T05:28:20;98580;;;22.4;100
51195;BME280;37259;49.972;19.850;2022-07-23T05:29:20;98570;;;22.4;100
51195;BME280;37259;49.972;19.850;2022-07-23T05:30:20;98570;;;22.4;100
51195;BME280;37259;49.972;19.850;2022-07-23T05:31:20;98580;;;22.5;100
51195;BME280;37259;49.972;19.850;2022-07-23T05:32:20;98580;;;22.5;100
51195;BME280;37259;49.972;19.850;2022-07-23T05:33:20;98580;;;22.6;100
51195;BME280;37259;49.972;19.850;2022-07-23T05:34:20;98580;;;22.7;100
51195;BME280;37259;49.972;19.850;2022-07-23T05:35:20;98570;;;22.8;100
51195;BME280;37259;49.972;19.850;2022-07-23T05:36:20;98570;;;22.8;100
51195;BME280;37259;49.972;19.850;2022-07-23T05:37:20;98570;;;22.9;100
51195;BME280;37259;49.972;19.850;2022-07-23T05:38:20;98570;;;22.9;100
51195;BME280;37259;49.972;19.850;2022-07-23T05:39:20;98570;;;22.9;100
51195;BME280;37259;49.972;19.850;2022-07-23T05:40:20;98570;;;22.9;100
51195;BME280;37259;49.972;19.850;2022-07-23T05:41:20;98570;;;23;100